createdAt,value
2018-04-15T00:09:00.433Z,100
2018-04-15T00:19:15.695Z,100
2018-04-15T00:29:30.603Z,100
2018-04-15T00:39:46.209Z,100
2018-04-15T00:50:00.237Z,100
2018-04-15T01:00:14.364Z,100
2018-04-15T01:10:28.729Z,100
2018-04-15T01:20:42.919Z,100
2018-04-15T01:30:57.968Z,100
2018-04-15T01:41:13.334Z,100
2018-04-15T01:51:28.177Z,100
2018-04-15T02:01:43.620Z,100
2018-04-15T02:11:58.140Z,100
2018-04-15T02:22:12.210Z,100
2018-04-15T02:32:26.319Z,100
2018-04-15T02:42:40.689Z,100
2018-04-15T02:52:54.433Z,100
2018-04-15T03:03:08.940Z,100
2018-04-15T03:13:23.144Z,100
2018-04-15T03:23:37.921Z,100
2018-04-15T03:33:53.709Z,100
2018-04-15T03:44:09.321Z,100
2018-04-15T03:54:24.756Z,100
2018-04-15T04:04:39.041Z,99.9
2018-04-15T04:14:52.743Z,99.3
2018-04-15T04:25:07.319Z,99.3
2018-04-15T04:35:21.650Z,98.8
2018-04-15T04:45:35.464Z,98.5
2018-04-15T04:55:50.021Z,98.8
2018-04-15T05:06:05.385Z,98.7
2018-04-15T05:16:20.685Z,98.2
2018-04-15T05:26:34.452Z,97.4
2018-04-15T05:36:49.294Z,97.4
2018-04-15T05:47:04.549Z,97.1
2018-04-15T05:57:18.933Z,97.1
2018-04-15T06:07:34.220Z,97
2018-04-15T06:17:49.439Z,96.6
2018-04-15T06:28:04.300Z,96.6
2018-04-15T06:38:19.873Z,96
2018-04-15T06:48:34.779Z,95.5
2018-04-15T06:58:49.343Z,95.5
2018-04-15T07:09:04.146Z,95.3
2018-04-15T07:19:18.921Z,94.8
2018-04-15T07:29:33.663Z,95.1
2018-04-15T07:39:48.119Z,95.3
2018-04-15T07:50:03.162Z,95.5
2018-04-15T08:00:17.510Z,96.4
2018-04-15T08:10:32.987Z,97.4
2018-04-15T08:20:46.807Z,100
2018-04-15T08:31:00.615Z,100
2018-04-15T08:41:15.473Z,100
2018-04-15T08:51:30.429Z,100
2018-04-15T09:01:45.421Z,100
2018-04-15T09:12:00.366Z,100
2018-04-15T09:22:14.291Z,100
2018-04-15T09:32:29.206Z,100
2018-04-15T09:42:44.330Z,100
2018-04-15T09:52:58.326Z,100
2018-04-15T10:03:12.914Z,100
2018-04-15T10:13:27.322Z,100
2018-04-15T10:23:42.876Z,100
2018-04-15T10:33:57.229Z,100
2018-04-15T10:44:12.292Z,100
2018-04-15T10:54:27.194Z,100
2018-04-15T11:04:42.030Z,100
2018-04-15T11:14:55.901Z,100
2018-04-15T11:25:10.943Z,100
2018-04-15T11:35:26.660Z,100
2018-04-15T11:45:40.558Z,100
2018-04-15T11:55:55.514Z,100
2018-04-15T12:06:11.052Z,99.3
2018-04-15T12:16:26.143Z,96
2018-04-15T12:26:40.483Z,96.3
2018-04-15T12:36:54.602Z,97.6
2018-04-15T12:47:09.966Z,96.2
2018-04-15T12:57:24.677Z,96.5
2018-04-15T13:07:38.566Z,92.1
2018-04-15T13:17:53.872Z,90.4
2018-04-15T13:28:09.676Z,90
2018-04-15T13:38:23.483Z,90
2018-04-15T13:48:39.120Z,88.9
2018-04-15T13:58:54.628Z,87.3
2018-04-15T14:09:10.178Z,86.4
2018-04-15T14:19:24.356Z,85.1
2018-04-15T14:29:38.441Z,82.8
2018-04-15T14:39:52.333Z,84.8
2018-04-15T14:50:07.245Z,85.7
2018-04-15T15:00:22.235Z,84.8
2018-04-15T15:10:37.625Z,87.4
2018-04-15T15:20:53.203Z,88
2018-04-15T15:31:08.244Z,87.9
2018-04-15T15:41:22.509Z,88.9
2018-04-15T15:51:37.482Z,88.8
2018-04-15T16:01:52.832Z,89.3
2018-04-15T16:12:08.199Z,88.6
2018-04-15T16:22:22.781Z,86.1
2018-04-15T16:32:38.094Z,85
2018-04-15T16:42:52.225Z,85.3
2018-04-15T16:53:06.809Z,86.2
2018-04-15T17:03:20.662Z,87.5
2018-04-15T17:13:35.203Z,89.2
2018-04-15T17:23:50.568Z,91.8
2018-04-15T17:34:04.643Z,92.4
2018-04-15T17:44:19.761Z,91
2018-04-15T17:54:34.394Z,91.4
2018-04-15T18:04:48.262Z,95.5
2018-04-15T18:15:02.506Z,97.6
2018-04-15T18:25:17.892Z,98.7
2018-04-15T18:35:32.352Z,100
2018-04-15T18:45:46.245Z,100
2018-04-15T18:56:01.220Z,100
2018-04-15T19:06:14.994Z,100
2018-04-15T19:16:29.664Z,100
2018-04-15T19:26:44.992Z,100
2018-04-15T19:36:59.666Z,100
2018-04-15T19:47:14.185Z,100
2018-04-15T19:57:29.267Z,100
2018-04-15T20:07:44.265Z,100
2018-04-15T20:17:59.032Z,100
2018-04-15T20:28:12.794Z,100
2018-04-15T20:38:28.055Z,100
2018-04-15T20:48:42.472Z,100
2018-04-15T20:58:57.612Z,100
2018-04-15T21:09:12.667Z,100
2018-04-15T21:19:28.343Z,100
2018-04-15T21:29:44.063Z,100
2018-04-15T21:39:57.936Z,100
2018-04-15T21:50:13.524Z,100
2018-04-15T22:00:27.892Z,100
2018-04-15T22:10:42.227Z,100
2018-04-15T22:20:56.320Z,100
2018-04-15T22:31:11.155Z,100
2018-04-15T22:41:25.893Z,100
2018-04-15T22:51:40.725Z,100
2018-04-15T23:01:55.382Z,100
2018-04-15T23:12:09.835Z,100
2018-04-15T23:22:25.455Z,100
2018-04-15T23:32:39.714Z,100
2018-04-15T23:42:54.067Z,100
2018-04-15T23:53:08.228Z,100
